Terminal Aerodrome Forecast
Issued by NWS

Home | Current Version | Previous Version | Text Only | Print | Product List | Glossary On
Versions: 1 2 3 4 5 6 7 8 9 10 11 12 13 14 15 16 17 18 19 20 21 22 23
000
FTUS43 KDVN 201700
TAFCID
TAF
KCID 201720Z 2018/2118 25010KT P6SM BKN020 OVC060
      TEMPO 2018/2020 4SM -TSRA BR SCT025 BKN040CB
     FM202200 29012KT P6SM BKN050
     FM210200 30011KT P6SM SKC=

USA.gov is the U.S. government's official web portal to all federal, state and local government web resources and services.